Datum - Zeit
Temperatur 2mTemperatur 5cmTaupunktFeuchteSolar Wind aus Richtung WindböenLuftdruck (QFF)RegenRegenstärkeTrend
25.05.2024 - 00.00Uhr11.2 °C10 °C94.0 %3.9 km/hNorden6.5 km/h1016.9 hPa0.0 mm0.0 mm/hwechselhaft
25.05.2024 - 00.05Uhr11.2 °C10 °C94.0 %4.0 km/hNorden6.5 km/h1016.9 hPa0.0 mm0.0 mm/hwechselhaft
25.05.2024 - 00.10Uhr11.2 °C10 °C94.0 %2.3 km/hNorden4.7 km/h1016.7 hPa0.0 mm0.0 mm/hwechselhaft
25.05.2024 - 00.15Uhr11.1 °C10 °C94.0 %3.5 km/hNorden4.7 km/h1016.8 hPa0.0 mm0.0 mm/hwechselhaft
25.05.2024 - 00.20Uhr10.9 °C10 °C94.0 %0.1 km/hNorden1.4 km/h1016.8 hPa0.0 mm0.0 mm/hwechselhaft
25.05.2024 - 00.25Uhr10.8 °C10 °C93.6 %2.3 km/hNorden6.5 km/h1016.9 hPa0.0 mm0.0 mm/hwechselhaft
25.05.2024 - 00.30Uhr10.7 °C10 °C93.0 %4.0 km/hNorden6.5 km/h1016.8 hPa0.0 mm0.0 mm/hwechselhaft
25.05.2024 - 00.35Uhr10.5 °C9 °C93.0 %3.0 km/hNorden4.7 km/h1016.8 hPa0.0 mm0.0 mm/hwechselhaft
25.05.2024 - 00.40Uhr10.3 °C9 °C93.1 %3.6 km/hNorden4.7 km/h1016.8 hPa0.0 mm0.0 mm/hwechselhaft
25.05.2024 - 00.45Uhr10.1 °C9 °C94.0 %1.7 km/hNorden4.7 km/h1016.8 hPa0.0 mm0.0 mm/hwechselhaft
25.05.2024 - 00.50Uhr10.0 °C9 °C94.0 %3.4 km/hNorden6.5 km/h1016.8 hPa0.0 mm0.0 mm/hwechselhaft
25.05.2024 - 00.55Uhr9.8 °C9 °C94.0 %4.1 km/hNorden4.7 km/h1016.8 hPa0.0 mm0.0 mm/hwechselhaft
25.05.2024 - 01.00Uhr9.7 °C9 °C94.0 %1.5 km/hNorden4.7 km/h1016.7 hPa0.0 mm0.0 mm/hwechselhaft
25.05.2024 - 01.05Uhr9.5 °C9 °C94.0 %2.9 km/hNorden6.5 km/h1016.6 hPa0.0 mm0.0 mm/hwechselhaft
25.05.2024 - 01.10Uhr9.4 °C8 °C94.0 %5.1 km/hNorden7.9 km/h1016.6 hPa0.0 mm0.0 mm/hwechselhaft
25.05.2024 - 01.15Uhr9.4 °C9 °C94.8 %5.0 km/hNorden7.9 km/h1016.6 hPa0.0 mm0.0 mm/hwechselhaft
25.05.2024 - 01.20Uhr9.4 °C9 °C95.0 %4.8 km/hNorden6.5 km/h1016.6 hPa0.0 mm0.0 mm/hwechselhaft
25.05.2024 - 01.25Uhr9.4 °C9 °C95.0 %4.3 km/hNorden6.5 km/h1016.6 hPa0.0 mm0.0 mm/hwechselhaft
25.05.2024 - 01.30Uhr9.3 °C9 °C95.0 %1.2 km/hNorden4.7 km/h1016.7 hPa0.0 mm0.0 mm/hwechselhaft
25.05.2024 - 01.35Uhr9.2 °C8 °C94.8 %0.0 km/hNorden0.0 km/h1016.7 hPa0.0 mm0.0 mm/hwechselhaft
25.05.2024 - 01.40Uhr9.2 °C8 °C94.1 %0.2 km/hNorden3.2 km/h1016.6 hPa0.0 mm0.0 mm/hwechselhaft
25.05.2024 - 01.45Uhr8.9 °C8 °C94.0 %1.3 km/hNorden4.7 km/h1016.7 hPa0.0 mm0.0 mm/hwechselhaft
25.05.2024 - 01.50Uhr8.8 °C8 °C94.8 %3.3 km/hNorden4.7 km/h1016.7 hPa0.0 mm0.0 mm/hwechselhaft
25.05.2024 - 01.55Uhr8.9 °C8 °C95.0 %3.7 km/hNorden6.5 km/h1016.6 hPa0.0 mm0.0 mm/hwechselhaft
25.05.2024 - 02.00Uhr8.9 °C8 °C95.0 %3.5 km/hNorden6.5 km/h1016.6 hPa0.0 mm0.0 mm/hwechselhaft
25.05.2024 - 02.05Uhr8.9 °C8 °C95.0 %3.7 km/hNorden6.5 km/h1016.7 hPa0.0 mm0.0 mm/hwechselhaft
25.05.2024 - 02.10Uhr8.9 °C8 °C95.1 %4.2 km/hNorden6.5 km/h1016.7 hPa0.0 mm0.0 mm/hwechselhaft
25.05.2024 - 02.15Uhr9.1 °C9 °C96.0 %1.4 km/hNorden6.5 km/h1016.6 hPa0.0 mm0.0 mm/hwechselhaft
25.05.2024 - 02.20Uhr9.2 °C9 °C96.0 %0.2 km/hNorden3.2 km/h1016.6 hPa0.0 mm0.0 mm/hwechselhaft
25.05.2024 - 02.25Uhr9.3 °C9 °C96.0 %0.0 km/hNorden0.0 km/h1016.5 hPa0.0 mm0.0 mm/hwechselhaft
25.05.2024 - 02.30Uhr9.2 °C9 °C96.0 %0.0 km/hNorden0.0 km/h1016.5 hPa0.0 mm0.0 mm/hwechselhaft
25.05.2024 - 02.35Uhr9.2 °C9 °C96.0 %0.5 km/hNorden3.2 km/h1016.5 hPa0.0 mm0.0 mm/hwechselhaft
25.05.2024 - 02.40Uhr9.2 °C9 °C96.0 %2.8 km/hNorden4.7 km/h1016.5 hPa0.0 mm0.0 mm/hwechselhaft
25.05.2024 - 02.45Uhr9.1 °C9 °C96.0 %1.0 km/hNorden3.2 km/h1016.5 hPa0.0 mm0.0 mm/hwechselhaft
25.05.2024 - 02.50Uhr9.1 °C8 °C95.4 %3.2 km/hNorden6.5 km/h1016.5 hPa0.0 mm0.0 mm/hwechselhaft
25.05.2024 - 02.55Uhr8.9 °C8 °C95.5 %4.5 km/hNorden6.5 km/h1016.6 hPa0.0 mm0.0 mm/hwechselhaft
25.05.2024 - 03.00Uhr8.9 °C8 °C96.0 %1.2 km/hNorden4.7 km/h1016.6 hPa0.0 mm0.0 mm/hwechselhaft
25.05.2024 - 03.05Uhr8.9 °C8 °C96.0 %0.2 km/hNorden1.4 km/h1016.7 hPa0.0 mm0.0 mm/hwechselhaft
25.05.2024 - 03.10Uhr8.9 °C8 °C96.0 %2.3 km/hNorden6.5 km/h1016.7 hPa0.0 mm0.0 mm/hwechselhaft
25.05.2024 - 03.15Uhr8.9 °C8 °C96.0 %2.5 km/hNorden4.7 km/h1016.7 hPa0.0 mm0.0 mm/hwechselhaft
25.05.2024 - 03.20Uhr8.9 °C8 °C96.0 %0.4 km/hNorden3.2 km/h1016.6 hPa0.0 mm0.0 mm/hwechselhaft
25.05.2024 - 03.25Uhr8.8 °C8 °C96.0 %0.7 km/hNorden3.2 km/h1016.6 hPa0.0 mm0.0 mm/hwechselhaft
25.05.2024 - 03.30Uhr8.7 °C8 °C95.2 %0.8 km/hNorden3.2 km/h1016.6 hPa0.0 mm0.0 mm/hwechselhaft
25.05.2024 - 03.35Uhr8.5 °C8 °C95.0 %4.0 km/hNorden6.5 km/h1016.5 hPa0.0 mm0.0 mm/hwechselhaft
25.05.2024 - 03.40Uhr8.3 °C7 °C95.0 %4.0 km/hNorden6.5 km/h1016.5 hPa0.0 mm0.0 mm/hwechselhaft
25.05.2024 - 03.45Uhr8.1 °C7 °C95.6 %4.0 km/hNorden6.5 km/h1016.5 hPa0.0 mm0.0 mm/hwechselhaft
25.05.2024 - 03.50Uhr8.1 °C8 °C96.0 %1.5 km/hNorden6.5 km/h1016.4 hPa0.0 mm0.0 mm/hwechselhaft
25.05.2024 - 03.55Uhr8.2 °C8 °C96.0 %0.5 km/hNorden4.7 km/h1016.5 hPa0.0 mm0.0 mm/hwechselhaft
25.05.2024 - 04.00Uhr8.2 °C8 °C96.0 %0.1 km/hNorden1.4 km/h1016.5 hPa0.0 mm0.0 mm/hwechselhaft
25.05.2024 - 04.05Uhr8.1 °C8 °C96.0 %0.9 km/hNorden3.2 km/h1016.5 hPa0.0 mm0.0 mm/hwechselhaft
25.05.2024 - 04.10Uhr8.0 °C7 °C96.0 %0.3 km/hNorden4.7 km/h1016.5 hPa0.0 mm0.0 mm/hwechselhaft
25.05.2024 - 04.15Uhr7.9 °C7 °C95.8 %0.0 km/hNorden0.0 km/h1016.6 hPa0.0 mm0.0 mm/hwechselhaft
25.05.2024 - 04.20Uhr7.8 °C7 °C96.0 %0.0 km/hNorden0.0 km/h1016.5 hPa0.0 mm0.0 mm/hwechselhaft
25.05.2024 - 04.25Uhr7.7 °C7 °C95.5 %0.0 km/hNorden0.0 km/h1016.5 hPa0.0 mm0.0 mm/hwechselhaft
25.05.2024 - 04.30Uhr7.7 °C7 °C96.0 %0.0 km/hNorden0.0 km/h1016.6 hPa0.0 mm0.0 mm/hwechselhaft
25.05.2024 - 04.35Uhr7.7 °C7 °C96.0 %2.1 km/hNorden4.7 km/h1016.5 hPa0.0 mm0.0 mm/hwechselhaft
25.05.2024 - 04.40Uhr7.5 °C7 °C96.0 %0.5 km/hNorden3.2 km/h1016.6 hPa0.0 mm0.0 mm/hwechselhaft
25.05.2024 - 04.45Uhr7.4 °C7 °C95.6 %0.3 km/hNorden3.2 km/h1016.6 hPa0.0 mm0.0 mm/hwechselhaft
25.05.2024 - 04.50Uhr7.3 °C7 °C95.0 %0.0 km/hNorden0.0 km/h1016.6 hPa0.0 mm0.0 mm/hwechselhaft
25.05.2024 - 04.55Uhr7.2 °C7 °C96.0 %0.0 km/hNorden0.0 km/h1016.6 hPa0.0 mm0.0 mm/hwechselhaft
25.05.2024 - 05.00Uhr7.2 °C7 °C96.0 %0.0 km/hNorden0.0 km/h1016.6 hPa0.0 mm0.0 mm/hwechselhaft
25.05.2024 - 05.05Uhr7.2 °C7 °C96.0 %0.0 km/hNorden0.0 km/h1016.6 hPa0.0 mm0.0 mm/hwechselhaft
25.05.2024 - 05.10Uhr7.2 °C7 °C96.0 %0.8 km/hNorden4.7 km/h1016.6 hPa0.0 mm0.0 mm/hwechselhaft
25.05.2024 - 05.15Uhr7.2 °C7 °C96.1 %1.4 km/hNorden4.7 km/h1016.7 hPa0.0 mm0.0 mm/hwechselhaft
25.05.2024 - 05.20Uhr7.3 °C7 °C96.8 %0.1 km/hNorden1.4 km/h1016.6 hPa0.0 mm0.0 mm/hwechselhaft
25.05.2024 - 05.25Uhr7.3 °C7 °C96.0 %0.3 km/hNorden3.2 km/h1016.6 hPa0.0 mm0.0 mm/hwechselhaft
25.05.2024 - 05.30Uhr7.2 °C7 °C96.0 %3.0 km/hNorden6.5 km/h1016.7 hPa0.0 mm0.0 mm/hwechselhaft
25.05.2024 - 05.35Uhr7.3 °C7 °C96.4 %2.2 km/hNorden4.7 km/h1016.6 hPa0.0 mm0.0 mm/hwechselhaft
25.05.2024 - 05.40Uhr7.4 °C7 °C97.0 %0.4 km/hNorden3.2 km/h1016.6 hPa0.0 mm0.0 mm/hwechselhaft
25.05.2024 - 05.45Uhr7.4 °C7 °C96.8 %0.0 km/hNorden0.0 km/h1016.8 hPa0.0 mm0.0 mm/hwechselhaft
25.05.2024 - 05.50Uhr7.4 °C7 °C96.0 %0.0 km/hNorden0.0 km/h1016.8 hPa0.0 mm0.0 mm/hwechselhaft
25.05.2024 - 05.55Uhr7.4 °C7 °C96.0 %2.1 km/hNorden4.7 km/h1016.8 hPa0.0 mm0.0 mm/hwechselhaft
25.05.2024 - 06.00Uhr7.4 °C7 °C96.2 %2.4 km/hNorden4.7 km/h1016.8 hPa0.0 mm0.0 mm/hwechselhaft
25.05.2024 - 06.05Uhr7.5 °C7 °C97.0 %2.1 km/hNorden4.7 km/h1016.8 hPa0.0 mm0.0 mm/hwechselhaft
25.05.2024 - 06.10Uhr7.6 °C7 °C97.0 %1.9 km/hNorden4.7 km/h1016.9 hPa0.0 mm0.0 mm/hwechselhaft
25.05.2024 - 06.15Uhr7.8 °C7 °C97.0 %1.3 km/hNorden3.2 km/h1016.9 hPa0.0 mm0.0 mm/hwechselhaft
25.05.2024 - 06.20Uhr7.9 °C8 °C97.0 %1.0 km/hNorden3.2 km/h1016.9 hPa0.0 mm0.0 mm/hwechselhaft
25.05.2024 - 06.25Uhr8.1 °C8 °C97.0 %0.0 km/hNorden0.0 km/h1016.9 hPa0.0 mm0.0 mm/hwechselhaft
25.05.2024 - 06.30Uhr8.3 °C8 °C97.0 %0.0 km/hNorden0.0 km/h1016.9 hPa0.0 mm0.0 mm/hwechselhaft
25.05.2024 - 06.35Uhr8.4 °C8 °C97.0 %0.1 km/hNorden1.4 km/h1016.9 hPa0.0 mm0.0 mm/hwechselhaft
25.05.2024 - 06.40Uhr8.5 °C8 °C97.0 %0.0 km/hNorden0.0 km/h1016.9 hPa0.0 mm0.0 mm/hwechselhaft
25.05.2024 - 06.45Uhr8.5 °C8 °C97.0 %0.0 km/hNorden0.0 km/h1016.9 hPa0.0 mm0.0 mm/hwechselhaft
25.05.2024 - 06.50Uhr8.6 °C8 °C97.0 %2.6 km/hNorden4.7 km/h1016.9 hPa0.0 mm0.0 mm/hwechselhaft
25.05.2024 - 06.55Uhr8.7 °C8 °C97.0 %2.1 km/hNorden4.7 km/h1016.9 hPa0.0 mm0.0 mm/hwechselhaft
25.05.2024 - 07.00Uhr8.8 °C8 °C97.0 %1.5 km/hNorden4.7 km/h1016.9 hPa0.0 mm0.0 mm/hwechselhaft
25.05.2024 - 07.05Uhr9.0 °C8 °C97.0 %1.3 km/hNorden4.7 km/h1016.9 hPa0.0 mm0.0 mm/hwechselhaft
25.05.2024 - 07.10Uhr9.2 °C9 °C97.0 %0.7 km/hNorden4.7 km/h1017.0 hPa0.0 mm0.0 mm/hwechselhaft
25.05.2024 - 07.15Uhr9.5 °C9 °C97.0 %0.1 km/hNorden1.4 km/h1017.1 hPa0.0 mm0.0 mm/hwechselhaft
25.05.2024 - 07.20Uhr9.9 °C9 °C97.0 %0.6 km/hNorden3.2 km/h1017.0 hPa0.0 mm0.0 mm/hwechselhaft
25.05.2024 - 07.25Uhr10.3 °C10 °C97.0 %1.7 km/hNorden6.5 km/h1017.0 hPa0.0 mm0.0 mm/hwechselhaft
25.05.2024 - 07.30Uhr10.8 °C10 °C96.7 %1.7 km/hNorden6.5 km/h1017.0 hPa0.0 mm0.0 mm/hwechselhaft
25.05.2024 - 07.35Uhr11.2 °C10 °C95.1 %0.6 km/hNorden3.2 km/h1017.0 hPa0.0 mm0.0 mm/hwechselhaft
25.05.2024 - 07.40Uhr11.6 °C11 °C94.0 %2.2 km/hNorden4.7 km/h1017.0 hPa0.0 mm0.0 mm/hwechselhaft
25.05.2024 - 07.45Uhr12.1 °C11 °C91.6 %1.4 km/hNorden4.7 km/h1017.1 hPa0.0 mm0.0 mm/hwechselhaft
25.05.2024 - 07.50Uhr12.5 °C11 °C90.6 %4.5 km/hNorden6.5 km/h1017.0 hPa0.0 mm0.0 mm/hwechselhaft
25.05.2024 - 07.55Uhr12.7 °C11 °C90.0 %4.0 km/hNorden7.9 km/h1017.0 hPa0.0 mm0.0 mm/hwechselhaft
25.05.2024 - 08.00Uhr12.9 °C11 °C88.7 %3.5 km/hNorden6.5 km/h1017.0 hPa0.0 mm0.0 mm/hwechselhaft
25.05.2024 - 08.05Uhr13.1 °C11 °C88.0 %4.9 km/hNorden9.7 km/h1017.0 hPa0.0 mm0.0 mm/hwechselhaft
25.05.2024 - 08.10Uhr13.3 °C11 °C87.7 %7.0 km/hNorden13.0 km/h1017.1 hPa0.0 mm0.0 mm/hwechselhaft
25.05.2024 - 08.15Uhr13.4 °C11 °C88.0 %4.2 km/hNorden7.9 km/h1017.1 hPa0.0 mm0.0 mm/hwechselhaft
25.05.2024 - 08.20Uhr13.3 °C11 °C87.6 %7.5 km/hNorden14.4 km/h1017.1 hPa0.0 mm0.0 mm/hwechselhaft
25.05.2024 - 08.25Uhr13.2 °C11 °C88.0 %8.0 km/hNorden14.4 km/h1017.1 hPa0.0 mm0.0 mm/hwechselhaft
25.05.2024 - 08.30Uhr13.2 °C11 °C87.8 %6.1 km/hNorden9.7 km/h1017.1 hPa0.0 mm0.0 mm/hwechselhaft
25.05.2024 - 08.35Uhr13.2 °C11 °C88.0 %5.5 km/hNorden9.7 km/h1017.0 hPa0.0 mm0.0 mm/hwechselhaft
25.05.2024 - 08.40Uhr13.3 °C11 °C88.2 %4.9 km/hNorden9.7 km/h1017.0 hPa0.0 mm0.0 mm/hwechselhaft
25.05.2024 - 08.45Uhr13.2 °C11 °C87.2 %6.1 km/hNorden9.7 km/h1017.1 hPa0.0 mm0.0 mm/hwechselhaft
25.05.2024 - 08.50Uhr13.2 °C11 °C87.8 %5.4 km/hNorden9.7 km/h1017.1 hPa0.0 mm0.0 mm/hwechselhaft
25.05.2024 - 08.55Uhr13.5 °C12 °C88.2 %5.7 km/hNorden13.0 km/h1017.1 hPa0.0 mm0.0 mm/hwechselhaft
25.05.2024 - 09.00Uhr13.5 °C12 °C87.4 %5.9 km/hNorden13.0 km/h1017.1 hPa0.0 mm0.0 mm/hwechselhaft
25.05.2024 - 09.05Uhr13.4 °C11 °C86.9 %6.1 km/hNorden14.4 km/h1017.1 hPa0.0 mm0.0 mm/hwechselhaft
25.05.2024 - 09.10Uhr13.6 °C11 °C86.6 %5.2 km/hNorden13.0 km/h1017.1 hPa0.0 mm0.0 mm/hwechselhaft
25.05.2024 - 09.15Uhr13.7 °C11 °C86.0 %6.4 km/hNorden9.7 km/h1017.1 hPa0.0 mm0.0 mm/hwechselhaft
25.05.2024 - 09.20Uhr13.6 °C11 °C86.2 %6.3 km/hNorden13.0 km/h1017.1 hPa0.0 mm0.0 mm/hwechselhaft
25.05.2024 - 09.25Uhr13.3 °C11 °C86.5 %6.3 km/hNorden13.0 km/h1017.1 hPa0.0 mm0.0 mm/hwechselhaft
25.05.2024 - 09.30Uhr13.2 °C11 °C88.0 %7.2 km/hNorden13.0 km/h1017.1 hPa0.0 mm0.0 mm/hwechselhaft
25.05.2024 - 09.35Uhr13.2 °C11 °C87.8 %6.0 km/hNorden14.4 km/h1017.1 hPa0.0 mm0.0 mm/hwechselhaft
25.05.2024 - 09.40Uhr13.2 °C11 °C88.0 %6.1 km/hNorden13.0 km/h1017.1 hPa0.0 mm0.0 mm/hwechselhaft
25.05.2024 - 09.45Uhr13.1 °C11 °C87.9 %4.2 km/hNorden9.7 km/h1017.1 hPa0.0 mm0.0 mm/hwechselhaft
25.05.2024 - 09.50Uhr13.1 °C11 °C87.7 %6.2 km/hNorden13.0 km/h1017.1 hPa0.0 mm0.0 mm/hwechselhaft
25.05.2024 - 09.55Uhr13.1 °C11 °C87.3 %4.8 km/hNorden7.9 km/h1017.1 hPa0.0 mm0.0 mm/hwechselhaft
25.05.2024 - 10.00Uhr13.1 °C11 °C87.8 %0.7 km/hNorden3.2 km/h1017.1 hPa0.0 mm0.0 mm/hwechselhaft
25.05.2024 - 10.05Uhr13.2 °C11 °C87.6 %0.1 km/hNorden1.4 km/h1017.1 hPa0.0 mm0.0 mm/hwechselhaft
25.05.2024 - 10.10Uhr13.5 °C12 °C87.7 %2.6 km/hNorden6.5 km/h1017.1 hPa0.0 mm0.0 mm/hwechselhaft
25.05.2024 - 10.15Uhr13.6 °C11 °C86.8 %4.0 km/hNorden7.9 km/h1017.1 hPa0.0 mm0.0 mm/hwechselhaft
25.05.2024 - 10.20Uhr13.7 °C11 °C85.8 %4.5 km/hNorden7.9 km/h1017.0 hPa0.0 mm0.0 mm/hwechselhaft
25.05.2024 - 10.25Uhr13.8 °C11 °C85.5 %4.2 km/hNorden7.9 km/h1017.0 hPa0.0 mm0.0 mm/hwechselhaft
25.05.2024 - 10.30Uhr13.9 °C12 °C85.5 %4.0 km/hNorden7.9 km/h1017.0 hPa0.0 mm0.0 mm/hwechselhaft
25.05.2024 - 10.35Uhr14.2 °C12 °C85.3 %3.8 km/hNorden7.9 km/h1017.0 hPa0.0 mm0.0 mm/hwechselhaft
25.05.2024 - 10.40Uhr14.2 °C12 °C84.3 %3.8 km/hNorden6.5 km/h1017.0 hPa0.0 mm0.0 mm/hwechselhaft
25.05.2024 - 10.45Uhr14.1 °C11 °C84.2 %2.4 km/hNorden6.5 km/h1017.0 hPa0.0 mm0.0 mm/hwechselhaft
25.05.2024 - 10.50Uhr14.1 °C11 °C84.0 %3.1 km/hNorden6.5 km/h1017.0 hPa0.0 mm0.0 mm/hwechselhaft
25.05.2024 - 10.55Uhr14.4 °C12 °C84.2 %2.6 km/hNorden6.5 km/h1017.0 hPa0.0 mm0.0 mm/hwechselhaft
25.05.2024 - 11.00Uhr14.4 °C12 °C83.4 %3.3 km/hNorden7.9 km/h1017.0 hPa0.0 mm0.0 mm/hwechselhaft
25.05.2024 - 11.05Uhr14.4 °C12 °C83.8 %3.2 km/hNorden13.0 km/h1017.0 hPa0.0 mm0.0 mm/hwechselhaft
25.05.2024 - 11.10Uhr14.4 °C12 °C83.5 %3.0 km/hNorden6.5 km/h1017.0 hPa0.0 mm0.0 mm/hwechselhaft
25.05.2024 - 11.15Uhr14.5 °C12 °C84.0 %4.1 km/hNorden9.7 km/h1016.9 hPa0.0 mm0.0 mm/hwechselhaft
25.05.2024 - 11.20Uhr14.6 °C12 °C83.2 %4.2 km/hNorden7.9 km/h1017.0 hPa0.0 mm0.0 mm/hwechselhaft
25.05.2024 - 11.25Uhr14.8 °C12 °C82.7 %2.3 km/hNorden4.7 km/h1017.0 hPa0.0 mm0.0 mm/hwechselhaft
25.05.2024 - 11.30Uhr15.2 °C12 °C82.8 %7.6 km/hNorden14.4 km/h1016.8 hPa0.0 mm0.0 mm/hwechselhaft
25.05.2024 - 11.35Uhr15.7 °C13 °C82.1 %6.8 km/hNorden14.4 km/h1016.8 hPa0.0 mm0.0 mm/hwechselhaft
25.05.2024 - 11.40Uhr15.7 °C12 °C81.0 %4.5 km/hNorden9.7 km/h1016.9 hPa0.0 mm0.0 mm/hwechselhaft
25.05.2024 - 11.45Uhr15.6 °C12 °C81.3 %5.1 km/hNorden7.9 km/h1016.8 hPa0.0 mm0.0 mm/hwechselhaft
25.05.2024 - 11.50Uhr15.6 °C12 °C81.7 %6.1 km/hNorden13.0 km/h1016.8 hPa0.0 mm0.0 mm/hwechselhaft
25.05.2024 - 11.55Uhr15.7 °C12 °C81.1 %10.0 km/hNorden14.4 km/h1016.7 hPa0.0 mm0.0 mm/hwechselhaft
25.05.2024 - 12.00Uhr15.7 °C12 °C79.8 %7.5 km/hNorden13.0 km/h1016.7 hPa0.0 mm0.0 mm/hwechselhaft
25.05.2024 - 12.05Uhr15.7 °C12 °C80.5 %6.0 km/hNorden13.0 km/h1016.7 hPa0.0 mm0.0 mm/hwechselhaft
25.05.2024 - 12.10Uhr15.5 °C12 °C80.6 %6.6 km/hNorden9.7 km/h1016.7 hPa0.0 mm0.0 mm/hwechselhaft
25.05.2024 - 12.15Uhr15.5 °C12 °C81.1 %4.6 km/hNorden9.7 km/h1016.7 hPa0.0 mm0.0 mm/hwechselhaft
25.05.2024 - 12.20Uhr15.6 °C12 °C81.4 %4.2 km/hNorden7.9 km/h1016.6 hPa0.0 mm0.0 mm/hwechselhaft
25.05.2024 - 12.25Uhr15.8 °C13 °C81.4 %7.2 km/hNorden14.4 km/h1016.5 hPa0.0 mm0.0 mm/hwechselhaft
25.05.2024 - 12.30Uhr16.1 °C13 °C81.4 %5.5 km/hNorden13.0 km/h1016.5 hPa0.0 mm0.0 mm/hwechselhaft
25.05.2024 - 12.35Uhr16.2 °C13 °C80.2 %4.5 km/hNorden9.7 km/h1016.5 hPa0.0 mm0.0 mm/hwechselhaft
25.05.2024 - 12.40Uhr16.2 °C13 °C79.3 %6.0 km/hNorden9.7 km/h1016.5 hPa0.0 mm0.0 mm/hwechselhaft
25.05.2024 - 12.45Uhr16.2 °C13 °C79.6 %4.8 km/hNorden9.7 km/h1016.5 hPa0.0 mm0.0 mm/hwechselhaft
25.05.2024 - 12.50Uhr16.2 °C13 °C79.4 %4.5 km/hNorden7.9 km/h1016.4 hPa0.0 mm0.0 mm/hwechselhaft
25.05.2024 - 12.55Uhr16.2 °C13 °C79.3 %3.8 km/hNorden7.9 km/h1016.4 hPa0.0 mm0.0 mm/hwechselhaft
25.05.2024 - 13.00Uhr16.2 °C13 °C79.2 %3.5 km/hNorden7.9 km/h1016.3 hPa0.0 mm0.0 mm/hwechselhaft
25.05.2024 - 13.05Uhr16.2 °C13 °C79.1 %2.4 km/hNorden7.9 km/h1016.3 hPa0.0 mm0.0 mm/hwechselhaft
25.05.2024 - 13.10Uhr16.2 °C13 °C79.9 %3.8 km/hNorden6.5 km/h1016.3 hPa0.0 mm0.0 mm/hwechselhaft
25.05.2024 - 13.15Uhr16.2 °C13 °C80.2 %4.2 km/hNorden7.9 km/h1016.3 hPa0.0 mm0.0 mm/hwechselhaft
25.05.2024 - 13.20Uhr16.1 °C13 °C80.0 %5.7 km/hNorden9.7 km/h1016.2 hPa0.0 mm0.0 mm/hwechselhaft
25.05.2024 - 13.25Uhr16.0 °C12 °C79.3 %5.4 km/hNorden7.9 km/h1016.2 hPa0.0 mm0.0 mm/hwechselhaft
25.05.2024 - 13.30Uhr16.0 °C13 °C80.5 %5.8 km/hNorden9.7 km/h1016.2 hPa0.0 mm0.0 mm/hwechselhaft
25.05.2024 - 13.35Uhr16.3 °C13 °C80.6 %6.4 km/hNorden9.7 km/h1016.2 hPa0.0 mm0.0 mm/hwechselhaft
25.05.2024 - 13.40Uhr16.5 °C12 °C77.2 %5.3 km/hNorden13.0 km/h1016.2 hPa0.0 mm0.0 mm/hwechselhaft
25.05.2024 - 13.45Uhr16.5 °C12 °C75.7 %2.9 km/hNorden6.5 km/h1016.1 hPa0.0 mm0.0 mm/hwechselhaft
25.05.2024 - 13.50Uhr16.4 °C12 °C77.0 %6.0 km/hNorden9.7 km/h1016.0 hPa0.0 mm0.0 mm/hwechselhaft
25.05.2024 - 13.55Uhr16.4 °C12 °C77.2 %3.8 km/hNorden7.9 km/h1016.0 hPa0.0 mm0.0 mm/hwechselhaft
25.05.2024 - 14.00Uhr16.6 °C12 °C76.4 %1.2 km/hNorden4.7 km/h1016.0 hPa0.0 mm0.0 mm/hwechselhaft
25.05.2024 - 14.05Uhr17.0 °C13 °C77.7 %3.5 km/hNorden7.9 km/h1015.9 hPa0.0 mm0.0 mm/hwechselhaft
25.05.2024 - 14.10Uhr17.3 °C13 °C74.0 %5.7 km/hNorden9.7 km/h1015.7 hPa0.0 mm0.0 mm/hwechselhaft
25.05.2024 - 14.15Uhr17.5 °C12 °C72.2 %3.0 km/hNorden7.9 km/h1015.7 hPa0.0 mm0.0 mm/hwechselhaft
25.05.2024 - 14.20Uhr17.6 °C12 °C70.8 %4.2 km/hNorden9.7 km/h1015.7 hPa0.0 mm0.0 mm/hwechselhaft
25.05.2024 - 14.25Uhr17.6 °C12 °C68.3 %2.4 km/hNorden7.9 km/h1015.7 hPa0.0 mm0.0 mm/hwechselhaft
25.05.2024 - 14.30Uhr17.6 °C11 °C67.0 %2.0 km/hNorden4.7 km/h1015.6 hPa0.0 mm0.0 mm/hwechselhaft
25.05.2024 - 14.35Uhr17.6 °C12 °C70.2 %4.1 km/hNorden6.5 km/h1015.7 hPa0.0 mm0.0 mm/hwechselhaft
25.05.2024 - 14.40Uhr17.7 °C12 °C69.5 %3.5 km/hNorden6.5 km/h1015.6 hPa0.0 mm0.0 mm/hwechselhaft
25.05.2024 - 14.45Uhr17.6 °C12 °C68.4 %1.4 km/hNorden4.7 km/h1015.6 hPa0.0 mm0.0 mm/hwechselhaft
25.05.2024 - 14.50Uhr17.6 °C12 °C68.0 %2.6 km/hNorden4.7 km/h1015.5 hPa0.0 mm0.0 mm/hwechselhaft
25.05.2024 - 14.55Uhr17.8 °C12 °C68.6 %1.7 km/hNorden6.5 km/h1015.5 hPa0.0 mm0.0 mm/hwechselhaft
25.05.2024 - 15.00Uhr18.2 °C12 °C68.2 %3.9 km/hNorden9.7 km/h1015.4 hPa0.0 mm0.0 mm/hwechselhaft
25.05.2024 - 15.05Uhr18.4 °C12 °C65.6 %3.0 km/hNorden6.5 km/h1015.4 hPa0.0 mm0.0 mm/hwechselhaft
25.05.2024 - 15.10Uhr18.5 °C12 °C65.2 %1.9 km/hNorden6.5 km/h1015.4 hPa0.0 mm0.0 mm/hwechselhaft
25.05.2024 - 15.15Uhr18.7 °C11 °C62.2 %4.0 km/hNorden9.7 km/h1015.4 hPa0.0 mm0.0 mm/hwechselhaft
25.05.2024 - 15.20Uhr18.8 °C11 °C60.9 %1.8 km/hNorden4.7 km/h1015.4 hPa0.0 mm0.0 mm/hwechselhaft
25.05.2024 - 15.25Uhr18.9 °C12 °C63.3 %2.5 km/hNorden6.5 km/h1015.3 hPa0.0 mm0.0 mm/hwechselhaft
25.05.2024 - 15.30Uhr19.1 °C11 °C60.4 %1.2 km/hNorden6.5 km/h1015.3 hPa0.0 mm0.0 mm/hwechselhaft
25.05.2024 - 15.35Uhr19.2 °C12 °C61.9 %3.5 km/hNorden7.9 km/h1015.2 hPa0.0 mm0.0 mm/hwechselhaft
25.05.2024 - 15.40Uhr19.4 °C11 °C59.6 %3.4 km/hNorden6.5 km/h1015.1 hPa0.0 mm0.0 mm/hwechselhaft
25.05.2024 - 15.45Uhr19.3 °C11 °C59.3 %4.3 km/hNorden9.7 km/h1015.1 hPa0.0 mm0.0 mm/hwechselhaft
25.05.2024 - 15.50Uhr19.4 °C11 °C59.6 %2.2 km/hNorden6.5 km/h1015.0 hPa0.0 mm0.0 mm/hwechselhaft
25.05.2024 - 15.55Uhr19.7 °C11 °C58.8 %5.4 km/hNorden13.0 km/h1015.0 hPa0.0 mm0.0 mm/hwechselhaft
25.05.2024 - 16.00Uhr19.7 °C11 °C58.0 %5.8 km/hNorden13.0 km/h1015.0 hPa0.0 mm0.0 mm/hwechselhaft
25.05.2024 - 16.05Uhr19.7 °C12 °C60.1 %7.5 km/hNorden16.2 km/h1015.0 hPa0.0 mm0.0 mm/hwechselhaft
25.05.2024 - 16.10Uhr19.6 °C11 °C56.2 %9.0 km/hNorden16.2 km/h1015.1 hPa0.0 mm0.0 mm/hwechselhaft
25.05.2024 - 16.15Uhr19.5 °C11 °C56.5 %7.1 km/hNorden13.0 km/h1015.1 hPa0.0 mm0.0 mm/hwechselhaft
25.05.2024 - 16.20Uhr19.5 °C11 °C57.6 %6.4 km/hNorden14.4 km/h1015.0 hPa0.0 mm0.0 mm/hwechselhaft
25.05.2024 - 16.25Uhr19.5 °C11 °C56.3 %5.6 km/hNorden13.0 km/h1015.0 hPa0.0 mm0.0 mm/hwechselhaft
25.05.2024 - 16.30Uhr19.6 °C11 °C55.8 %5.4 km/hNorden9.7 km/h1015.0 hPa0.0 mm0.0 mm/hwechselhaft
25.05.2024 - 16.35Uhr19.8 °C11 °C56.1 %4.0 km/hNorden7.9 km/h1015.0 hPa0.0 mm0.0 mm/hwechselhaft
25.05.2024 - 16.40Uhr19.8 °C10 °C54.9 %6.2 km/hNorden16.2 km/h1015.0 hPa0.0 mm0.0 mm/hwechselhaft
25.05.2024 - 16.45Uhr19.8 °C11 °C55.9 %10.4 km/hNorden17.6 km/h1015.0 hPa0.0 mm0.0 mm/hwechselhaft
25.05.2024 - 16.50Uhr19.8 °C11 °C55.7 %5.5 km/hNorden14.4 km/h1015.0 hPa0.0 mm0.0 mm/hwechselhaft
25.05.2024 - 16.55Uhr19.8 °C10 °C54.7 %7.2 km/hNorden16.2 km/h1015.0 hPa0.0 mm0.0 mm/hwechselhaft
25.05.2024 - 17.00Uhr19.9 °C10 °C53.8 %5.0 km/hNorden9.7 km/h1015.0 hPa0.0 mm0.0 mm/hwechselhaft
25.05.2024 - 17.05Uhr19.9 °C10 °C53.6 %6.5 km/hNorden13.0 km/h1015.1 hPa0.0 mm0.0 mm/hwechselhaft
25.05.2024 - 17.10Uhr19.8 °C10 °C54.3 %7.1 km/hNorden16.2 km/h1015.1 hPa0.0 mm0.0 mm/hwechselhaft
25.05.2024 - 17.15Uhr19.9 °C12 °C59.6 %10.3 km/hNorden22.7 km/h1015.1 hPa0.0 mm0.0 mm/hwechselhaft
25.05.2024 - 17.20Uhr19.6 °C13 °C65.1 %11.4 km/hNorden20.9 km/h1015.1 hPa0.0 mm0.0 mm/hwechselhaft
25.05.2024 - 17.25Uhr19.3 °C13 °C66.0 %9.9 km/hNorden19.4 km/h1015.1 hPa0.0 mm0.0 mm/hwechselhaft
25.05.2024 - 17.30Uhr19.2 °C13 °C66.5 %12.0 km/hNorden19.4 km/h1015.1 hPa0.0 mm0.0 mm/hwechselhaft
25.05.2024 - 17.35Uhr19.1 °C13 °C66.8 %9.4 km/hNorden17.6 km/h1015.1 hPa0.0 mm0.0 mm/hwechselhaft
25.05.2024 - 17.40Uhr19.0 °C13 °C67.8 %7.5 km/hNorden14.4 km/h1015.1 hPa0.0 mm0.0 mm/hwechselhaft
25.05.2024 - 17.45Uhr18.9 °C13 °C68.0 %9.8 km/hNorden17.6 km/h1015.2 hPa0.0 mm0.0 mm/hwechselhaft
25.05.2024 - 17.50Uhr18.8 °C13 °C67.7 %9.3 km/hNorden16.2 km/h1015.2 hPa0.0 mm0.0 mm/hwechselhaft
25.05.2024 - 17.55Uhr18.8 °C13 °C68.4 %10.1 km/hNorden17.6 km/h1015.2 hPa0.0 mm0.0 mm/hwechselhaft
25.05.2024 - 18.00Uhr18.5 °C12 °C66.0 %10.9 km/hNorden19.4 km/h1015.2 hPa0.0 mm0.0 mm/hwechselhaft
25.05.2024 - 18.05Uhr18.1 °C12 °C67.0 %7.5 km/hNorden13.0 km/h1015.1 hPa0.0 mm0.0 mm/hwechselhaft
25.05.2024 - 18.10Uhr17.7 °C12 °C67.9 %6.8 km/hNorden14.4 km/h1015.1 hPa0.0 mm0.0 mm/hwechselhaft
25.05.2024 - 18.15Uhr17.7 °C12 °C68.7 %6.4 km/hNorden14.4 km/h1015.1 hPa0.0 mm0.0 mm/hwechselhaft
25.05.2024 - 18.20Uhr17.9 °C12 °C67.4 %7.2 km/hNorden14.4 km/h1015.0 hPa0.0 mm0.0 mm/hwechselhaft
25.05.2024 - 18.25Uhr18.2 °C12 °C67.0 %10.6 km/hNorden17.6 km/h1015.1 hPa0.0 mm0.0 mm/hwechselhaft
25.05.2024 - 18.30Uhr18.3 °C12 °C66.3 %8.5 km/hNorden16.2 km/h1015.1 hPa0.0 mm0.0 mm/hwechselhaft
25.05.2024 - 18.35Uhr17.9 °C12 °C66.4 %8.4 km/hNorden14.4 km/h1015.1 hPa0.0 mm0.0 mm/hwechselhaft
25.05.2024 - 18.40Uhr17.8 °C12 °C68.4 %5.2 km/hNorden9.7 km/h1015.2 hPa0.0 mm0.0 mm/hwechselhaft
25.05.2024 - 18.45Uhr17.9 °C12 °C67.9 %6.2 km/hNorden9.7 km/h1015.2 hPa0.0 mm0.0 mm/hwechselhaft
25.05.2024 - 18.50Uhr18.2 °C12 °C67.4 %8.1 km/hNorden13.0 km/h1015.2 hPa0.0 mm0.0 mm/hwechselhaft
25.05.2024 - 18.55Uhr18.3 °C12 °C68.1 %7.7 km/hNorden13.0 km/h1015.2 hPa0.0 mm0.0 mm/hwechselhaft
25.05.2024 - 19.00Uhr18.3 °C12 °C68.3 %7.4 km/hNorden14.4 km/h1015.2 hPa0.0 mm0.0 mm/hwechselhaft
25.05.2024 - 19.05Uhr18.3 °C12 °C67.9 %6.6 km/hNorden13.0 km/h1015.2 hPa0.0 mm0.0 mm/hwechselhaft
25.05.2024 - 19.10Uhr18.2 °C12 °C68.5 %8.2 km/hNorden13.0 km/h1015.2 hPa0.0 mm0.0 mm/hwechselhaft
25.05.2024 - 19.15Uhr18.1 °C12 °C68.4 %6.8 km/hNorden13.0 km/h1015.1 hPa0.0 mm0.0 mm/hwechselhaft
25.05.2024 - 19.20Uhr18.0 °C12 °C67.8 %6.1 km/hNorden9.7 km/h1015.2 hPa0.0 mm0.0 mm/hwechselhaft
25.05.2024 - 19.25Uhr17.9 °C12 °C66.6 %5.0 km/hNorden9.7 km/h1015.2 hPa0.0 mm0.0 mm/hwechselhaft
25.05.2024 - 19.30Uhr17.8 °C11 °C66.6 %4.2 km/hNorden7.9 km/h1015.2 hPa0.0 mm0.0 mm/hwechselhaft
25.05.2024 - 19.35Uhr17.8 °C12 °C68.0 %4.2 km/hNorden7.9 km/h1015.2 hPa0.0 mm0.0 mm/hwechselhaft
25.05.2024 - 19.40Uhr17.8 °C12 °C68.8 %4.7 km/hNorden7.9 km/h1015.2 hPa0.0 mm0.0 mm/hwechselhaft
25.05.2024 - 19.45Uhr17.7 °C12 °C68.3 %5.9 km/hNorden13.0 km/h1015.2 hPa0.0 mm0.0 mm/hwechselhaft
25.05.2024 - 19.50Uhr17.7 °C12 °C68.4 %5.5 km/hNorden9.7 km/h1015.2 hPa0.0 mm0.0 mm/hwechselhaft
25.05.2024 - 19.55Uhr17.6 °C12 °C69.3 %4.9 km/hNorden7.9 km/h1015.3 hPa0.0 mm0.0 mm/hwechselhaft
25.05.2024 - 20.00Uhr17.5 °C12 °C70.2 %4.1 km/hNorden6.5 km/h1015.2 hPa0.0 mm0.0 mm/hwechselhaft
25.05.2024 - 20.05Uhr17.4 °C12 °C71.0 %3.3 km/hNorden6.5 km/h1015.2 hPa0.0 mm0.0 mm/hwechselhaft
25.05.2024 - 20.10Uhr17.4 °C12 °C71.7 %2.9 km/hNorden4.7 km/h1015.3 hPa0.0 mm0.0 mm/hwechselhaft
25.05.2024 - 20.15Uhr17.5 °C12 °C72.1 %3.0 km/hNorden6.5 km/h1015.3 hPa0.0 mm0.0 mm/hwechselhaft
25.05.2024 - 20.20Uhr17.5 °C12 °C72.0 %3.4 km/hNorden6.5 km/h1015.3 hPa0.0 mm0.0 mm/hwechselhaft
25.05.2024 - 20.25Uhr17.4 °C12 °C72.4 %1.9 km/hNorden4.7 km/h1015.3 hPa0.0 mm0.0 mm/hwechselhaft
25.05.2024 - 20.30Uhr17.2 °C12 °C73.4 %1.8 km/hNorden3.2 km/h1015.3 hPa0.0 mm0.0 mm/hwechselhaft
25.05.2024 - 20.35Uhr16.9 °C12 °C75.1 %1.1 km/hNorden3.2 km/h1015.3 hPa0.0 mm0.0 mm/hwechselhaft
25.05.2024 - 20.40Uhr16.4 °C12 °C77.7 %2.7 km/hNorden4.7 km/h1015.3 hPa0.0 mm0.0 mm/hwechselhaft
25.05.2024 - 20.45Uhr15.8 °C12 °C79.9 %3.5 km/hNorden4.7 km/h1015.3 hPa0.0 mm0.0 mm/hwechselhaft
25.05.2024 - 20.50Uhr15.2 °C12 °C81.7 %4.0 km/hNorden4.7 km/h1015.2 hPa0.0 mm0.0 mm/hwechselhaft
25.05.2024 - 20.55Uhr14.7 °C12 °C82.5 %3.4 km/hNorden4.7 km/h1015.3 hPa0.0 mm0.0 mm/hwechselhaft
25.05.2024 - 21.00Uhr14.2 °C11 °C83.7 %1.6 km/hNorden3.2 km/h1015.3 hPa0.0 mm0.0 mm/hwechselhaft
25.05.2024 - 21.05Uhr13.8 °C11 °C84.4 %1.4 km/hNorden3.2 km/h1015.4 hPa0.0 mm0.0 mm/hwechselhaft
25.05.2024 - 21.10Uhr13.4 °C11 °C85.2 %0.4 km/hNorden3.2 km/h1015.4 hPa0.0 mm0.0 mm/hwechselhaft
25.05.2024 - 21.15Uhr13.1 °C11 °C86.0 %2.1 km/hNorden3.2 km/h1015.5 hPa0.0 mm0.0 mm/hwechselhaft
25.05.2024 - 21.20Uhr12.8 °C11 °C86.8 %4.0 km/hNorden6.5 km/h1015.5 hPa0.0 mm0.0 mm/hwechselhaft
25.05.2024 - 21.25Uhr12.5 °C10 °C87.0 %5.1 km/hNorden6.5 km/h1015.5 hPa0.0 mm0.0 mm/hwechselhaft
25.05.2024 - 21.30Uhr12.2 °C10 °C87.8 %5.1 km/hNorden6.5 km/h1015.6 hPa0.0 mm0.0 mm/hwechselhaft
25.05.2024 - 21.35Uhr12.0 °C10 °C88.0 %4.0 km/hNorden6.5 km/h1015.8 hPa0.0 mm0.0 mm/hwechselhaft
25.05.2024 - 21.40Uhr11.8 °C10 °C88.2 %3.3 km/hNorden4.7 km/h1015.9 hPa0.0 mm0.0 mm/hwechselhaft
25.05.2024 - 21.45Uhr11.7 °C10 °C89.0 %3.0 km/hNorden4.7 km/h1015.9 hPa0.0 mm0.0 mm/hwechselhaft
25.05.2024 - 21.50Uhr11.6 °C10 °C89.1 %3.8 km/hNorden4.7 km/h1015.9 hPa0.0 mm0.0 mm/hwechselhaft
25.05.2024 - 21.55Uhr11.4 °C10 °C90.0 %2.0 km/hNorden4.7 km/h1016.0 hPa0.0 mm0.0 mm/hwechselhaft
25.05.2024 - 22.00Uhr11.4 °C10 °C90.0 %0.0 km/hNorden1.4 km/h1016.0 hPa0.0 mm0.0 mm/hwechselhaft
25.05.2024 - 22.05Uhr11.3 °C10 °C90.0 %0.4 km/hNorden3.2 km/h1016.0 hPa0.0 mm0.0 mm/hwechselhaft
25.05.2024 - 22.10Uhr11.1 °C10 °C90.3 %1.4 km/hNorden4.7 km/h1016.1 hPa0.0 mm0.0 mm/hwechselhaft
25.05.2024 - 22.15Uhr11.1 °C10 °C91.0 %3.3 km/hNorden6.5 km/h1016.1 hPa0.0 mm0.0 mm/hwechselhaft
25.05.2024 - 22.20Uhr11.1 °C10 °C91.9 %3.9 km/hNorden6.5 km/h1016.2 hPa0.0 mm0.0 mm/hwechselhaft
25.05.2024 - 22.25Uhr11.0 °C10 °C92.0 %3.7 km/hNorden6.5 km/h1016.2 hPa0.0 mm0.0 mm/hwechselhaft
25.05.2024 - 22.30Uhr10.9 °C10 °C92.0 %1.3 km/hNorden4.7 km/h1016.2 hPa0.0 mm0.0 mm/hwechselhaft
25.05.2024 - 22.35Uhr10.9 °C10 °C92.4 %0.3 km/hNorden3.2 km/h1016.2 hPa0.0 mm0.0 mm/hwechselhaft
25.05.2024 - 22.40Uhr11.1 °C10 °C93.3 %3.5 km/hNorden9.7 km/h1016.3 hPa0.0 mm0.0 mm/hwechselhaft
25.05.2024 - 22.45Uhr11.5 °C10 °C92.8 %3.5 km/hNorden7.9 km/h1016.3 hPa0.0 mm0.0 mm/hwechselhaft
25.05.2024 - 22.50Uhr11.7 °C10 °C91.3 %2.3 km/hNorden4.7 km/h1016.3 hPa0.0 mm0.0 mm/hwechselhaft
25.05.2024 - 22.55Uhr11.8 °C10 °C90.2 %3.1 km/hNorden6.5 km/h1016.3 hPa0.0 mm0.0 mm/hwechselhaft
25.05.2024 - 23.00Uhr11.8 °C10 °C89.7 %2.3 km/hNorden4.7 km/h1016.2 hPa0.0 mm0.0 mm/hwechselhaft
25.05.2024 - 23.05Uhr11.7 °C10 °C89.0 %2.4 km/hNorden6.5 km/h1016.2 hPa0.0 mm0.0 mm/hwechselhaft
25.05.2024 - 23.10Uhr11.6 °C10 °C89.0 %2.3 km/hNorden7.9 km/h1016.3 hPa0.0 mm0.0 mm/hwechselhaft
25.05.2024 - 23.15Uhr11.7 °C10 °C89.0 %3.4 km/hNorden7.9 km/h1016.3 hPa0.0 mm0.0 mm/hwechselhaft
25.05.2024 - 23.20Uhr11.7 °C10 °C89.0 %2.8 km/hNorden4.7 km/h1016.4 hPa0.0 mm0.0 mm/hwechselhaft